STE.-Anne-De-Bellevue, Quebec

10:07 AM EDT on April 26, 2015 (GMT -0400)
APRSWXNET | | Change Station
CLOSE
Current Station
Personal Weather Station
Location: STE.-Anne-De-Bellevue, QB
Elevation: 102 ft
Nearby Weather Stations

Elev 102 ft 45.42 °N, 73.88 °W | Updated 39 minutes ago

Mostly Cloudy
Mostly Cloudy
47 °F
Feels Like 47 °F
N
2
Wind Variable Wind from SSW
Gusts 6.0 mph

Today is forecast to be nearly the same temperature as yesterday.

Today
High -- | Low -- °F
--% Chance of Precip.
Yesterday
High -- | Low -- °F
Precip. -- in
5:52 AM 7:55 PM
First Quarter, 56% visible
Pressure 29.75 in
Visibility 15.0 miles
Clouds Few 3500 ft
Scattered Clouds 6000 ft
Scattered Clouds 10000 ft
Mostly Cloudy 24000 ft
Windchill 47 °F
Dew Point 34 °F
Humidity 61%
Rainfall in
Snow Depth Not available.
UV 2 out of 12
Pollen Not available.
Air Quality Not available.
Flu Activity Not available.
METAR CYUL 261300Z VRB03KT 15SM FEW035 SCT060 SCT100 BKN240 06/M00 A2974 RMK SC1SC2AC1CI2 AC TR SLP072

More Conditions Fewer Conditions

Pressure 29.75 in
Visibility 15.0 miles
Clouds Few 3500 ft
Scattered Clouds 6000 ft
Scattered Clouds 10000 ft
Mostly Cloudy 24000 ft
Windchill 47 °F
Dew Point 34 °F
Humidity 61%
Rainfall in
Snow Depth Not available.
UV 2 out of 12
Pollen Not available.
Air Quality Not available.
Flu Activity Not available.
METAR CYUL 261300Z VRB03KT 15SM FEW035 SCT060 SCT100 BKN240 06/M00 A2974 RMK SC1SC2AC1CI2 AC TR SLP072

More Conditions Fewer Conditions

10-Day Weather Forecast

Almanac

Astronomy

Apr. 26, 2015 Rise Set
Actual Time
Civil Twilight
Nautical Twilight
Astronomical Twilight
Moon
Length of Visible Light
Length of Day
Tomorrow will be .
, % of the Moon is Illuminated

Today's Extremes

Country Highs Country Lows

Community

WunderPhotos

Upload Photos

1,817,007 photos uploaded!

WunderBlogs® & News

Nearby

Air Quality

  Air Quality AQ Index Pollutant
Not available.

Snow Depth

Station Depth Elevation

Earthquake Activity

City Distance Mag. Time & Date
Minimum magnitude displayed is 2.5.

Coastal Water Temperatures

Place Temperature

Stations

Nearby Weather Stations

Station Location Temp. Windchill Dew Point Humidity Wind Precip. Elev Updated Type